sensor_id;sensor_type;location;lat;lon;timestamp;P1;durP1;ratioP1;P2;durP2;ratioP2
11691;SDS011;33659;42.672;23.354;2023-04-15T00:01:21;1.83;;;1.67;;
11691;SDS011;33659;42.672;23.354;2023-04-15T00:03:49;2.97;;;1.90;;
11691;SDS011;33659;42.672;23.354;2023-04-15T00:06:17;1.80;;;1.60;;
11691;SDS011;33659;42.672;23.354;2023-04-15T00:08:45;3.03;;;1.67;;
11691;SDS011;33659;42.672;23.354;2023-04-15T00:11:12;3.63;;;1.97;;
11691;SDS011;33659;42.672;23.354;2023-04-15T00:13:40;5.03;;;2.60;;
11691;SDS011;33659;42.672;23.354;2023-04-15T00:16:07;2.93;;;2.63;;
11691;SDS011;33659;42.672;23.354;2023-04-15T00:18:35;4.87;;;3.50;;
11691;SDS011;33659;42.672;23.354;2023-04-15T00:21:03;4.47;;;3.42;;
11691;SDS011;33659;42.672;23.354;2023-04-15T00:23:30;4.20;;;2.83;;
11691;SDS011;33659;42.672;23.354;2023-04-15T00:25:58;3.83;;;2.60;;
11691;SDS011;33659;42.672;23.354;2023-04-15T00:28:25;4.93;;;2.63;;
11691;SDS011;33659;42.672;23.354;2023-04-15T00:30:52;5.55;;;2.47;;
11691;SDS011;33659;42.672;23.354;2023-04-15T00:33:19;2.88;;;2.63;;
11691;SDS011;33659;42.672;23.354;2023-04-15T00:35:45;4.80;;;3.13;;
11691;SDS011;33659;42.672;23.354;2023-04-15T00:38:12;3.17;;;2.60;;
11691;SDS011;33659;42.672;23.354;2023-04-15T00:40:39;4.63;;;3.10;;
11691;SDS011;33659;42.672;23.354;2023-04-15T00:43:08;5.95;;;3.17;;
11691;SDS011;33659;42.672;23.354;2023-04-15T00:45:34;6.53;;;3.35;;
11691;SDS011;33659;42.672;23.354;2023-04-15T00:48:01;4.20;;;3.80;;
11691;SDS011;33659;42.672;23.354;2023-04-15T00:50:28;6.25;;;3.10;;
11691;SDS011;33659;42.672;23.354;2023-04-15T00:52:55;4.55;;;3.20;;
11691;SDS011;33659;42.672;23.354;2023-04-15T00:55:22;2.63;;;2.25;;
11691;SDS011;33659;42.672;23.354;2023-04-15T00:57:49;4.03;;;2.40;;
11691;SDS011;33659;42.672;23.354;2023-04-15T01:00:17;3.58;;;2.70;;
11691;SDS011;33659;42.672;23.354;2023-04-15T01:02:44;2.87;;;2.57;;
11691;SDS011;33659;42.672;23.354;2023-04-15T01:05:11;3.50;;;2.40;;
11691;SDS011;33659;42.672;23.354;2023-04-15T01:07:38;3.88;;;2.78;;
11691;SDS011;33659;42.672;23.354;2023-04-15T01:10:05;4.03;;;2.35;;
11691;SDS011;33659;42.672;23.354;2023-04-15T01:12:32;3.77;;;2.33;;
11691;SDS011;33659;42.672;23.354;2023-04-15T01:15:00;4.35;;;2.72;;
11691;SDS011;33659;42.672;23.354;2023-04-15T01:17:28;4.30;;;3.13;;
11691;SDS011;33659;42.672;23.354;2023-04-15T01:19:55;5.23;;;3.40;;
11691;SDS011;33659;42.672;23.354;2023-04-15T01:22:23;6.47;;;3.23;;
11691;SDS011;33659;42.672;23.354;2023-04-15T01:24:54;4.63;;;3.40;;
11691;SDS011;33659;42.672;23.354;2023-04-15T01:27:25;9.57;;;3.60;;
11691;SDS011;33659;42.672;23.354;2023-04-15T01:29:52;5.00;;;3.13;;
11691;SDS011;33659;42.672;23.354;2023-04-15T01:32:18;9.17;;;3.20;;
11691;SDS011;33659;42.672;23.354;2023-04-15T01:34:45;4.90;;;2.93;;
11691;SDS011;33659;42.672;23.354;2023-04-15T01:37:12;4.47;;;3.00;;
11691;SDS011;33659;42.672;23.354;2023-04-15T01:39:38;4.53;;;2.73;;
11691;SDS011;33659;42.672;23.354;2023-04-15T01:42:05;3.40;;;3.07;;
11691;SDS011;33659;42.672;23.354;2023-04-15T01:44:33;3.53;;;2.90;;
11691;SDS011;33659;42.672;23.354;2023-04-15T01:47:00;3.57;;;2.70;;
11691;SDS011;33659;42.672;23.354;2023-04-15T01:49:27;4.93;;;2.83;;
11691;SDS011;33659;42.672;23.354;2023-04-15T01:51:53;4.43;;;2.77;;
11691;SDS011;33659;42.672;23.354;2023-04-15T01:54:20;3.63;;;2.60;;
11691;SDS011;33659;42.672;23.354;2023-04-15T01:56:47;3.37;;;2.50;;
11691;SDS011;33659;42.672;23.354;2023-04-15T01:59:13;3.63;;;2.93;;
11691;SDS011;33659;42.672;23.354;2023-04-15T02:01:42;8.63;;;3.27;;
11691;SDS011;33659;42.672;23.354;2023-04-15T02:04:09;3.20;;;2.20;;
11691;SDS011;33659;42.672;23.354;2023-04-15T02:06:40;3.83;;;3.23;;
11691;SDS011;33659;42.672;23.354;2023-04-15T02:09:07;2.83;;;2.57;;
11691;SDS011;33659;42.672;23.354;2023-04-15T02:11:34;5.33;;;2.50;;
11691;SDS011;33659;42.672;23.354;2023-04-15T02:14:01;3.00;;;2.30;;
11691;SDS011;33659;42.672;23.354;2023-04-15T02:16:28;3.50;;;2.27;;
11691;SDS011;33659;42.672;23.354;2023-04-15T02:18:56;3.70;;;2.80;;
11691;SDS011;33659;42.672;23.354;2023-04-15T02:21:24;2.60;;;2.40;;
11691;SDS011;33659;42.672;23.354;2023-04-15T02:23:51;2.67;;;2.23;;
11691;SDS011;33659;42.672;23.354;2023-04-15T02:26:18;3.10;;;2.40;;
11691;SDS011;33659;42.672;23.354;2023-04-15T02:28:46;3.17;;;2.80;;
11691;SDS011;33659;42.672;23.354;2023-04-15T02:31:13;5.97;;;2.40;;
11691;SDS011;33659;42.672;23.354;2023-04-15T02:33:39;4.40;;;2.53;;
11691;SDS011;33659;42.672;23.354;2023-04-15T02:36:07;3.83;;;2.03;;
11691;SDS011;33659;42.672;23.354;2023-04-15T02:38:36;4.70;;;2.63;;
11691;SDS011;33659;42.672;23.354;2023-04-15T02:41:04;4.95;;;2.50;;
11691;SDS011;33659;42.672;23.354;2023-04-15T02:43:31;9.05;;;2.83;;
11691;SDS011;33659;42.672;23.354;2023-04-15T02:45:58;3.00;;;2.58;;
11691;SDS011;33659;42.672;23.354;2023-04-15T02:48:24;4.47;;;2.83;;
11691;SDS011;33659;42.672;23.354;2023-04-15T02:50:51;5.93;;;3.10;;
11691;SDS011;33659;42.672;23.354;2023-04-15T02:53:19;3.10;;;2.63;;
11691;SDS011;33659;42.672;23.354;2023-04-15T02:55:46;3.58;;;2.53;;
11691;SDS011;33659;42.672;23.354;2023-04-15T02:58:12;4.43;;;3.03;;
11691;SDS011;33659;42.672;23.354;2023-04-15T03:00:39;4.85;;;3.25;;
11691;SDS011;33659;42.672;23.354;2023-04-15T03:03:06;7.80;;;3.88;;
11691;SDS011;33659;42.672;23.354;2023-04-15T03:05:33;5.73;;;3.57;;
11691;SDS011;33659;42.672;23.354;2023-04-15T03:07:59;10.27;;;4.40;;
11691;SDS011;33659;42.672;23.354;2023-04-15T03:10:28;4.93;;;3.83;;
11691;SDS011;33659;42.672;23.354;2023-04-15T03:12:55;4.63;;;3.70;;
11691;SDS011;33659;42.672;23.354;2023-04-15T03:15:22;3.73;;;3.30;;
11691;SDS011;33659;42.672;23.354;2023-04-15T03:17:49;5.07;;;3.33;;
11691;SDS011;33659;42.672;23.354;2023-04-15T03:20:15;5.20;;;3.70;;
11691;SDS011;33659;42.672;23.354;2023-04-15T03:22:42;4.20;;;3.47;;
11691;SDS011;33659;42.672;23.354;2023-04-15T03:25:09;4.57;;;3.27;;
11691;SDS011;33659;42.672;23.354;2023-04-15T03:27:38;5.13;;;3.30;;
11691;SDS011;33659;42.672;23.354;2023-04-15T03:30:05;5.20;;;2.80;;
11691;SDS011;33659;42.672;23.354;2023-04-15T03:32:33;6.37;;;3.10;;
11691;SDS011;33659;42.672;23.354;2023-04-15T03:34:59;4.20;;;2.97;;
11691;SDS011;33659;42.672;23.354;2023-04-15T03:37:26;3.80;;;2.67;;
11691;SDS011;33659;42.672;23.354;2023-04-15T03:39:52;4.10;;;2.63;;
11691;SDS011;33659;42.672;23.354;2023-04-15T03:42:19;4.67;;;2.70;;
11691;SDS011;33659;42.672;23.354;2023-04-15T03:44:47;3.97;;;2.83;;
11691;SDS011;33659;42.672;23.354;2023-04-15T03:47:14;4.53;;;2.80;;
11691;SDS011;33659;42.672;23.354;2023-04-15T03:49:40;3.57;;;2.93;;
11691;SDS011;33659;42.672;23.354;2023-04-15T03:52:07;3.97;;;2.90;;
11691;SDS011;33659;42.672;23.354;2023-04-15T03:54:34;3.60;;;2.90;;
11691;SDS011;33659;42.672;23.354;2023-04-15T03:57:00;3.53;;;2.37;;
11691;SDS011;33659;42.672;23.354;2023-04-15T03:59:27;3.50;;;2.90;;
11691;SDS011;33659;42.672;23.354;2023-04-15T04:01:55;3.17;;;2.23;;
11691;SDS011;33659;42.672;23.354;2023-04-15T04:04:22;6.33;;;2.83;;
11691;SDS011;33659;42.672;23.354;2023-04-15T04:06:49;4.13;;;2.80;;
11691;SDS011;33659;42.672;23.354;2023-04-15T04:09:15;3.05;;;2.50;;
11691;SDS011;33659;42.672;23.354;2023-04-15T04:11:42;4.43;;;3.00;;
11691;SDS011;33659;42.672;23.354;2023-04-15T04:14:09;8.77;;;3.45;;
11691;SDS011;33659;42.672;23.354;2023-04-15T04:16:36;7.57;;;3.80;;
11691;SDS011;33659;42.672;23.354;2023-04-15T04:19:04;5.43;;;3.73;;
11691;SDS011;33659;42.672;23.354;2023-04-15T04:21:30;8.33;;;3.87;;
11691;SDS011;33659;42.672;23.354;2023-04-15T04:23:58;4.47;;;3.63;;
11691;SDS011;33659;42.672;23.354;2023-04-15T04:26:25;4.30;;;2.93;;
11691;SDS011;33659;42.672;23.354;2023-04-15T04:28:51;5.47;;;3.17;;
11691;SDS011;33659;42.672;23.354;2023-04-15T04:31:18;4.90;;;3.63;;
11691;SDS011;33659;42.672;23.354;2023-04-15T04:33:45;7.37;;;4.77;;
11691;SDS011;33659;42.672;23.354;2023-04-15T04:36:13;6.75;;;5.03;;
11691;SDS011;33659;42.672;23.354;2023-04-15T04:38:39;8.88;;;4.93;;
11691;SDS011;33659;42.672;23.354;2023-04-15T04:41:06;7.63;;;4.87;;
11691;SDS011;33659;42.672;23.354;2023-04-15T04:43:33;11.60;;;5.22;;
11691;SDS011;33659;42.672;23.354;2023-04-15T04:46:00;7.43;;;4.45;;
11691;SDS011;33659;42.672;23.354;2023-04-15T04:48:26;10.02;;;5.35;;
11691;SDS011;33659;42.672;23.354;2023-04-15T04:50:53;7.72;;;4.63;;
11691;SDS011;33659;42.672;23.354;2023-04-15T04:53:21;5.97;;;4.50;;
11691;SDS011;33659;42.672;23.354;2023-04-15T04:55:48;9.50;;;5.38;;
11691;SDS011;33659;42.672;23.354;2023-04-15T04:58:15;10.48;;;4.97;;
11691;SDS011;33659;42.672;23.354;2023-04-15T05:00:41;7.00;;;4.43;;
11691;SDS011;33659;42.672;23.354;2023-04-15T05:03:08;5.95;;;4.53;;
11691;SDS011;33659;42.672;23.354;2023-04-15T05:05:35;5.82;;;4.70;;
11691;SDS011;33659;42.672;23.354;2023-04-15T05:08:03;8.02;;;4.68;;
11691;SDS011;33659;42.672;23.354;2023-04-15T05:10:32;5.45;;;4.47;;
11691;SDS011;33659;42.672;23.354;2023-04-15T05:12:59;8.15;;;4.38;;
11691;SDS011;33659;42.672;23.354;2023-04-15T05:15:25;4.75;;;4.05;;
11691;SDS011;33659;42.672;23.354;2023-04-15T05:17:53;7.43;;;4.35;;
11691;SDS011;33659;42.672;23.354;2023-04-15T05:20:20;5.53;;;4.00;;
11691;SDS011;33659;42.672;23.354;2023-04-15T05:22:46;6.63;;;3.97;;
11691;SDS011;33659;42.672;23.354;2023-04-15T05:25:13;5.57;;;3.90;;
11691;SDS011;33659;42.672;23.354;2023-04-15T05:27:41;4.57;;;3.60;;
11691;SDS011;33659;42.672;23.354;2023-04-15T05:30:08;5.95;;;4.00;;
11691;SDS011;33659;42.672;23.354;2023-04-15T05:32:35;6.82;;;3.85;;
11691;SDS011;33659;42.672;23.354;2023-04-15T05:35:02;5.32;;;4.00;;
11691;SDS011;33659;42.672;23.354;2023-04-15T05:37:28;7.30;;;4.18;;
11691;SDS011;33659;42.672;23.354;2023-04-15T05:39:55;8.57;;;4.80;;
11691;SDS011;33659;42.672;23.354;2023-04-15T05:42:22;5.20;;;4.07;;
11691;SDS011;33659;42.672;23.354;2023-04-15T05:44:50;7.03;;;4.50;;
11691;SDS011;33659;42.672;23.354;2023-04-15T05:47:16;6.80;;;4.40;;
11691;SDS011;33659;42.672;23.354;2023-04-15T05:49:43;7.75;;;4.60;;
11691;SDS011;33659;42.672;23.354;2023-04-15T05:52:10;9.00;;;4.55;;
11691;SDS011;33659;42.672;23.354;2023-04-15T05:54:36;4.47;;;4.07;;
11691;SDS011;33659;42.672;23.354;2023-04-15T05:57:03;7.18;;;4.00;;
11691;SDS011;33659;42.672;23.354;2023-04-15T05:59:30;6.65;;;4.35;;
11691;SDS011;33659;42.672;23.354;2023-04-15T06:01:58;5.53;;;4.15;;
11691;SDS011;33659;42.672;23.354;2023-04-15T06:04:25;7.03;;;4.30;;
11691;SDS011;33659;42.672;23.354;2023-04-15T06:06:51;4.22;;;3.70;;
11691;SDS011;33659;42.672;23.354;2023-04-15T06:09:18;4.90;;;3.60;;
11691;SDS011;33659;42.672;23.354;2023-04-15T06:11:45;3.58;;;3.00;;
11691;SDS011;33659;42.672;23.354;2023-04-15T06:14:11;5.85;;;3.72;;
11691;SDS011;33659;42.672;23.354;2023-04-15T06:16:38;4.37;;;3.40;;
11691;SDS011;33659;42.672;23.354;2023-04-15T06:19:06;6.72;;;3.40;;
11691;SDS011;33659;42.672;23.354;2023-04-15T06:21:32;3.45;;;3.15;;
11691;SDS011;33659;42.672;23.354;2023-04-15T06:23:59;3.45;;;2.90;;
11691;SDS011;33659;42.672;23.354;2023-04-15T06:26:27;6.38;;;3.70;;
11691;SDS011;33659;42.672;23.354;2023-04-15T06:28:54;6.55;;;3.35;;
11691;SDS011;33659;42.672;23.354;2023-04-15T06:31:21;5.53;;;3.55;;
11691;SDS011;33659;42.672;23.354;2023-04-15T06:33:47;6.63;;;3.30;;
11691;SDS011;33659;42.672;23.354;2023-04-15T06:36:16;4.63;;;3.65;;
11691;SDS011;33659;42.672;23.354;2023-04-15T06:38:42;5.65;;;3.55;;
11691;SDS011;33659;42.672;23.354;2023-04-15T06:41:09;7.90;;;2.90;;
11691;SDS011;33659;42.672;23.354;2023-04-15T06:43:36;5.00;;;3.08;;
11691;SDS011;33659;42.672;23.354;2023-04-15T06:46:03;5.57;;;3.40;;
11691;SDS011;33659;42.672;23.354;2023-04-15T06:48:29;7.80;;;3.55;;
11691;SDS011;33659;42.672;23.354;2023-04-15T06:50:56;3.90;;;2.88;;
11691;SDS011;33659;42.672;23.354;2023-04-15T06:53:24;4.28;;;3.03;;
11691;SDS011;33659;42.672;23.354;2023-04-15T06:55:52;5.40;;;3.28;;
11691;SDS011;33659;42.672;23.354;2023-04-15T06:58:18;5.60;;;3.15;;
11691;SDS011;33659;42.672;23.354;2023-04-15T07:00:45;4.90;;;3.42;;
11691;SDS011;33659;42.672;23.354;2023-04-15T07:03:12;4.03;;;3.15;;
11691;SDS011;33659;42.672;23.354;2023-04-15T07:05:39;5.03;;;3.17;;
11691;SDS011;33659;42.672;23.354;2023-04-15T07:08:06;7.72;;;3.65;;
11691;SDS011;33659;42.672;23.354;2023-04-15T07:10:34;3.53;;;3.10;;
11691;SDS011;33659;42.672;23.354;2023-04-15T07:13:01;6.90;;;3.45;;
11691;SDS011;33659;42.672;23.354;2023-04-15T07:15:28;5.57;;;3.35;;
11691;SDS011;33659;42.672;23.354;2023-04-15T07:17:57;3.70;;;3.33;;
11691;SDS011;33659;42.672;23.354;2023-04-15T07:20:24;6.32;;;3.42;;
11691;SDS011;33659;42.672;23.354;2023-04-15T07:22:51;7.72;;;3.35;;
11691;SDS011;33659;42.672;23.354;2023-04-15T07:25:18;4.88;;;2.67;;
11691;SDS011;33659;42.672;23.354;2023-04-15T07:27:46;3.13;;;2.58;;
11691;SDS011;33659;42.672;23.354;2023-04-15T07:30:13;5.25;;;3.00;;
11691;SDS011;33659;42.672;23.354;2023-04-15T07:32:40;9.00;;;3.47;;
11691;SDS011;33659;42.672;23.354;2023-04-15T07:35:07;4.60;;;3.25;;
11691;SDS011;33659;42.672;23.354;2023-04-15T07:37:34;5.15;;;3.45;;
11691;SDS011;33659;42.672;23.354;2023-04-15T07:40:01;4.07;;;3.33;;
11691;SDS011;33659;42.672;23.354;2023-04-15T07:42:29;7.80;;;3.80;;
11691;SDS011;33659;42.672;23.354;2023-04-15T07:44:57;6.80;;;3.50;;
11691;SDS011;33659;42.672;23.354;2023-04-15T07:47:23;5.55;;;3.30;;
11691;SDS011;33659;42.672;23.354;2023-04-15T07:49:51;3.65;;;2.95;;
11691;SDS011;33659;42.672;23.354;2023-04-15T07:52:17;3.83;;;3.10;;
11691;SDS011;33659;42.672;23.354;2023-04-15T07:54:44;8.70;;;3.28;;
11691;SDS011;33659;42.672;23.354;2023-04-15T07:57:11;5.45;;;3.38;;
11691;SDS011;33659;42.672;23.354;2023-04-15T07:59:37;3.90;;;2.70;;
11691;SDS011;33659;42.672;23.354;2023-04-15T08:02:05;4.78;;;3.10;;
11691;SDS011;33659;42.672;23.354;2023-04-15T08:04:32;3.35;;;3.03;;
11691;SDS011;33659;42.672;23.354;2023-04-15T08:06:59;6.07;;;3.22;;
11691;SDS011;33659;42.672;23.354;2023-04-15T08:09:25;3.70;;;2.75;;
11691;SDS011;33659;42.672;23.354;2023-04-15T08:11:52;3.05;;;2.63;;
11691;SDS011;33659;42.672;23.354;2023-04-15T08:14:19;4.70;;;2.97;;
11691;SDS011;33659;42.672;23.354;2023-04-15T08:16:46;6.68;;;3.17;;
11691;SDS011;33659;42.672;23.354;2023-04-15T08:19:14;5.82;;;3.28;;
11691;SDS011;33659;42.672;23.354;2023-04-15T08:21:41;5.88;;;3.35;;
11691;SDS011;33659;42.672;23.354;2023-04-15T08:24:07;6.45;;;3.35;;
11691;SDS011;33659;42.672;23.354;2023-04-15T08:26:35;3.95;;;2.63;;
11691;SDS011;33659;42.672;23.354;2023-04-15T08:29:02;5.68;;;2.50;;
11691;SDS011;33659;42.672;23.354;2023-04-15T08:31:28;4.90;;;2.67;;
11691;SDS011;33659;42.672;23.354;2023-04-15T08:33:55;4.22;;;2.60;;
11691;SDS011;33659;42.672;23.354;2023-04-15T08:36:24;3.70;;;2.58;;
11691;SDS011;33659;42.672;23.354;2023-04-15T08:38:52;2.70;;;2.17;;
11691;SDS011;33659;42.672;23.354;2023-04-15T08:41:20;9.40;;;2.88;;
11691;SDS011;33659;42.672;23.354;2023-04-15T08:43:51;5.32;;;3.10;;
11691;SDS011;33659;42.672;23.354;2023-04-15T08:46:19;3.08;;;2.40;;
11691;SDS011;33659;42.672;23.354;2023-04-15T08:48:48;4.93;;;3.00;;
11691;SDS011;33659;42.672;23.354;2023-04-15T08:51:15;5.55;;;2.65;;
11691;SDS011;33659;42.672;23.354;2023-04-15T08:53:43;5.05;;;2.78;;
11691;SDS011;33659;42.672;23.354;2023-04-15T08:56:12;4.35;;;2.95;;
11691;SDS011;33659;42.672;23.354;2023-04-15T08:58:40;4.88;;;3.30;;
11691;SDS011;33659;42.672;23.354;2023-04-15T09:01:08;6.75;;;2.83;;
11691;SDS011;33659;42.672;23.354;2023-04-15T09:03:35;5.63;;;2.42;;
11691;SDS011;33659;42.672;23.354;2023-04-15T09:06:03;3.30;;;2.20;;
11691;SDS011;33659;42.672;23.354;2023-04-15T09:08:30;2.35;;;1.95;;
11691;SDS011;33659;42.672;23.354;2023-04-15T09:10:58;2.90;;;2.28;;
11691;SDS011;33659;42.672;23.354;2023-04-15T09:13:24;2.55;;;1.88;;
11691;SDS011;33659;42.672;23.354;2023-04-15T09:15:51;4.38;;;1.98;;
11691;SDS011;33659;42.672;23.354;2023-04-15T09:18:28;2.17;;;1.55;;
11691;SDS011;33659;42.672;23.354;2023-04-15T09:20:58;3.47;;;1.92;;
11691;SDS011;33659;42.672;23.354;2023-04-15T09:23:31;2.85;;;1.75;;
11691;SDS011;33659;42.672;23.354;2023-04-15T09:25:59;6.80;;;2.05;;
11691;SDS011;33659;42.672;23.354;2023-04-15T09:28:27;3.55;;;1.63;;
11691;SDS011;33659;42.672;23.354;2023-04-15T09:30:56;3.20;;;1.77;;
11691;SDS011;33659;42.672;23.354;2023-04-15T09:33:24;1.75;;;1.55;;
11691;SDS011;33659;42.672;23.354;2023-04-15T09:35:58;4.25;;;1.65;;
11691;SDS011;33659;42.672;23.354;2023-04-15T09:38:26;4.47;;;1.50;;
11691;SDS011;33659;42.672;23.354;2023-04-15T09:40:53;1.42;;;1.33;;
11691;SDS011;33659;42.672;23.354;2023-04-15T09:43:21;1.55;;;1.45;;
11691;SDS011;33659;42.672;23.354;2023-04-15T09:45:50;8.95;;;1.88;;
11691;SDS011;33659;42.672;23.354;2023-04-15T09:48:20;3.08;;;1.70;;
11691;SDS011;33659;42.672;23.354;2023-04-15T09:50:49;3.35;;;1.88;;
11691;SDS011;33659;42.672;23.354;2023-04-15T09:53:17;2.70;;;1.85;;
11691;SDS011;33659;42.672;23.354;2023-04-15T09:55:48;2.72;;;1.73;;
11691;SDS011;33659;42.672;23.354;2023-04-15T09:58:18;3.40;;;1.70;;
11691;SDS011;33659;42.672;23.354;2023-04-15T10:00:49;1.45;;;1.35;;
11691;SDS011;33659;42.672;23.354;2023-04-15T10:03:18;4.30;;;2.03;;
11691;SDS011;33659;42.672;23.354;2023-04-15T10:05:48;3.58;;;1.70;;
11691;SDS011;33659;42.672;23.354;2023-04-15T10:08:17;3.00;;;1.73;;
11691;SDS011;33659;42.672;23.354;2023-04-15T10:10:45;1.65;;;1.55;;
11691;SDS011;33659;42.672;23.354;2023-04-15T10:13:12;1.90;;;1.40;;
11691;SDS011;33659;42.672;23.354;2023-04-15T10:15:41;2.17;;;1.10;;
11691;SDS011;33659;42.672;23.354;2023-04-15T10:18:11;4.40;;;1.80;;
11691;SDS011;33659;42.672;23.354;2023-04-15T10:20:41;2.25;;;0.80;;
11691;SDS011;33659;42.672;23.354;2023-04-15T10:23:09;0.75;;;0.75;;
11691;SDS011;33659;42.672;23.354;2023-04-15T10:25:37;1.02;;;0.93;;
11691;SDS011;33659;42.672;23.354;2023-04-15T10:28:05;1.98;;;0.90;;
11691;SDS011;33659;42.672;23.354;2023-04-15T10:30:32;1.52;;;0.73;;
11691;SDS011;33659;42.672;23.354;2023-04-15T10:32:59;1.95;;;1.13;;
11691;SDS011;33659;42.672;23.354;2023-04-15T10:35:28;1.65;;;1.00;;
11691;SDS011;33659;42.672;23.354;2023-04-15T10:37:56;1.10;;;1.00;;
11691;SDS011;33659;42.672;23.354;2023-04-15T10:40:24;1.35;;;0.98;;
11691;SDS011;33659;42.672;23.354;2023-04-15T10:42:53;2.30;;;1.42;;
11691;SDS011;33659;42.672;23.354;2023-04-15T10:45:21;0.80;;;0.80;;
11691;SDS011;33659;42.672;23.354;2023-04-15T10:47:50;1.85;;;1.13;;
11691;SDS011;33659;42.672;23.354;2023-04-15T10:50:18;2.25;;;0.85;;
11691;SDS011;33659;42.672;23.354;2023-04-15T10:52:49;2.85;;;1.20;;
11691;SDS011;33659;42.672;23.354;2023-04-15T10:55:18;1.23;;;1.15;;
11691;SDS011;33659;42.672;23.354;2023-04-15T10:57:46;1.52;;;1.30;;
11691;SDS011;33659;42.672;23.354;2023-04-15T11:00:17;1.30;;;1.20;;
11691;SDS011;33659;42.672;23.354;2023-04-15T11:02:46;1.75;;;1.30;;
11691;SDS011;33659;42.672;23.354;2023-04-15T11:05:14;1.35;;;1.10;;
11691;SDS011;33659;42.672;23.354;2023-04-15T11:07:50;3.75;;;1.40;;
11691;SDS011;33659;42.672;23.354;2023-04-15T11:13:19;1.90;;;1.80;;
11691;SDS011;33659;42.672;23.354;2023-04-15T11:15:53;2.03;;;1.50;;
11691;SDS011;33659;42.672;23.354;2023-04-15T11:18:23;1.40;;;1.23;;
11691;SDS011;33659;42.672;23.354;2023-04-15T11:20:52;4.25;;;1.67;;
11691;SDS011;33659;42.672;23.354;2023-04-15T11:23:27;0.80;;;0.80;;
11691;SDS011;33659;42.672;23.354;2023-04-15T11:25:55;1.90;;;1.23;;
11691;SDS011;33659;42.672;23.354;2023-04-15T11:28:24;3.55;;;1.38;;
11691;SDS011;33659;42.672;23.354;2023-04-15T11:30:52;1.65;;;1.27;;
11691;SDS011;33659;42.672;23.354;2023-04-15T11:33:19;2.35;;;1.30;;
11691;SDS011;33659;42.672;23.354;2023-04-15T11:35:47;3.35;;;1.23;;
11691;SDS011;33659;42.672;23.354;2023-04-15T11:38:14;1.00;;;0.80;;
11691;SDS011;33659;42.672;23.354;2023-04-15T11:40:43;3.63;;;0.90;;
11691;SDS011;33659;42.672;23.354;2023-04-15T11:43:10;0.98;;;0.80;;
11691;SDS011;33659;42.672;23.354;2023-04-15T11:45:46;0.65;;;0.32;;
11691;SDS011;33659;42.672;23.354;2023-04-15T11:48:15;1.80;;;0.82;;
11691;SDS011;33659;42.672;23.354;2023-04-15T11:50:42;1.05;;;0.82;;
11691;SDS011;33659;42.672;23.354;2023-04-15T11:53:10;1.13;;;0.77;;
11691;SDS011;33659;42.672;23.354;2023-04-15T11:55:42;1.15;;;1.00;;
11691;SDS011;33659;42.672;23.354;2023-04-15T11:58:11;1.75;;;0.43;;
11691;SDS011;33659;42.672;23.354;2023-04-15T12:00:40;1.40;;;0.60;;
11691;SDS011;33659;42.672;23.354;2023-04-15T12:03:22;2.88;;;1.00;;
11691;SDS011;33659;42.672;23.354;2023-04-15T12:06:01;1.02;;;0.82;;
11691;SDS011;33659;42.672;23.354;2023-04-15T12:11:37;1.13;;;0.70;;
11691;SDS011;33659;42.672;23.354;2023-04-15T12:14:06;2.22;;;0.95;;
11691;SDS011;33659;42.672;23.354;2023-04-15T12:16:35;1.77;;;0.57;;
11691;SDS011;33659;42.672;23.354;2023-04-15T12:19:04;1.38;;;0.90;;
11691;SDS011;33659;42.672;23.354;2023-04-15T12:21:33;1.15;;;0.77;;
11691;SDS011;33659;42.672;23.354;2023-04-15T12:24:03;1.17;;;0.98;;
11691;SDS011;33659;42.672;23.354;2023-04-15T12:26:33;1.38;;;0.82;;
11691;SDS011;33659;42.672;23.354;2023-04-15T12:29:04;1.70;;;0.98;;
11691;SDS011;33659;42.672;23.354;2023-04-15T12:31:32;1.38;;;1.05;;
11691;SDS011;33659;42.672;23.354;2023-04-15T12:33:59;1.08;;;0.80;;
11691;SDS011;33659;42.672;23.354;2023-04-15T12:36:26;2.33;;;1.35;;
11691;SDS011;33659;42.672;23.354;2023-04-15T12:38:54;1.17;;;0.50;;
11691;SDS011;33659;42.672;23.354;2023-04-15T12:41:21;1.00;;;0.80;;
11691;SDS011;33659;42.672;23.354;2023-04-15T12:43:48;1.23;;;0.95;;
11691;SDS011;33659;42.672;23.354;2023-04-15T12:46:16;0.90;;;0.80;;
11691;SDS011;33659;42.672;23.354;2023-04-15T12:48:44;0.60;;;0.60;;
11691;SDS011;33659;42.672;23.354;2023-04-15T12:51:11;1.63;;;1.40;;
11691;SDS011;33659;42.672;23.354;2023-04-15T12:53:37;0.77;;;0.77;;
11691;SDS011;33659;42.672;23.354;2023-04-15T12:56:04;1.13;;;0.95;;
11691;SDS011;33659;42.672;23.354;2023-04-15T12:58:31;1.95;;;0.95;;
11691;SDS011;33659;42.672;23.354;2023-04-15T13:00:58;2.17;;;0.68;;
11691;SDS011;33659;42.672;23.354;2023-04-15T13:03:26;1.25;;;0.73;;
11691;SDS011;33659;42.672;23.354;2023-04-15T13:05:53;2.15;;;0.73;;
11691;SDS011;33659;42.672;23.354;2023-04-15T13:08:19;0.70;;;0.70;;
11691;SDS011;33659;42.672;23.354;2023-04-15T13:10:46;0.50;;;0.50;;
11691;SDS011;33659;42.672;23.354;2023-04-15T13:13:13;1.30;;;0.80;;
11691;SDS011;33659;42.672;23.354;2023-04-15T13:15:39;0.85;;;0.80;;
11691;SDS011;33659;42.672;23.354;2023-04-15T13:18:09;0.95;;;0.90;;
11691;SDS011;33659;42.672;23.354;2023-04-15T13:20:37;0.70;;;0.70;;
11691;SDS011;33659;42.672;23.354;2023-04-15T13:23:04;1.95;;;1.10;;
11691;SDS011;33659;42.672;23.354;2023-04-15T13:25:31;4.38;;;1.40;;
11691;SDS011;33659;42.672;23.354;2023-04-15T13:27:58;1.15;;;0.90;;
11691;SDS011;33659;42.672;23.354;2023-04-15T13:30:25;1.23;;;0.80;;
11691;SDS011;33659;42.672;23.354;2023-04-15T13:32:52;1.38;;;0.80;;
11691;SDS011;33659;42.672;23.354;2023-04-15T13:35:19;0.85;;;0.80;;
11691;SDS011;33659;42.672;23.354;2023-04-15T13:37:47;1.42;;;0.60;;
11691;SDS011;33659;42.672;23.354;2023-04-15T13:40:14;1.30;;;0.75;;
11691;SDS011;33659;42.672;23.354;2023-04-15T13:42:41;0.75;;;0.73;;
11691;SDS011;33659;42.672;23.354;2023-04-15T13:45:08;1.13;;;0.85;;
11691;SDS011;33659;42.672;23.354;2023-04-15T13:47:35;0.88;;;0.68;;
11691;SDS011;33659;42.672;23.354;2023-04-15T13:50:02;2.70;;;0.60;;
11691;SDS011;33659;42.672;23.354;2023-04-15T13:52:29;2.75;;;1.30;;
11691;SDS011;33659;42.672;23.354;2023-04-15T13:54:57;1.45;;;1.20;;
11691;SDS011;33659;42.672;23.354;2023-04-15T13:57:24;1.00;;;0.90;;
11691;SDS011;33659;42.672;23.354;2023-04-15T13:59:51;0.60;;;0.55;;
11691;SDS011;33659;42.672;23.354;2023-04-15T14:02:19;0.88;;;0.70;;
11691;SDS011;33659;42.672;23.354;2023-04-15T14:04:47;0.88;;;0.70;;
11691;SDS011;33659;42.672;23.354;2023-04-15T14:07:13;1.70;;;1.10;;
11691;SDS011;33659;42.672;23.354;2023-04-15T14:09:41;1.38;;;0.70;;
11691;SDS011;33659;42.672;23.354;2023-04-15T14:12:10;1.60;;;1.20;;
11691;SDS011;33659;42.672;23.354;2023-04-15T14:14:36;0.77;;;0.68;;
11691;SDS011;33659;42.672;23.354;2023-04-15T14:17:03;1.05;;;0.57;;
11691;SDS011;33659;42.672;23.354;2023-04-15T14:19:30;0.77;;;0.77;;
11691;SDS011;33659;42.672;23.354;2023-04-15T14:21:57;2.72;;;0.80;;
11691;SDS011;33659;42.672;23.354;2023-04-15T14:24:24;1.02;;;0.85;;
11691;SDS011;33659;42.672;23.354;2023-04-15T14:26:51;1.10;;;0.85;;
11691;SDS011;33659;42.672;23.354;2023-04-15T14:29:19;0.60;;;0.60;;
11691;SDS011;33659;42.672;23.354;2023-04-15T14:31:46;1.90;;;0.85;;
11691;SDS011;33659;42.672;23.354;2023-04-15T14:34:13;1.63;;;0.52;;
11691;SDS011;33659;42.672;23.354;2023-04-15T14:36:40;0.75;;;0.70;;
11691;SDS011;33659;42.672;23.354;2023-04-15T14:39:07;0.90;;;0.63;;
11691;SDS011;33659;42.672;23.354;2023-04-15T14:41:34;1.73;;;1.05;;